sensor_id;sensor_type;location;lat;lon;timestamp;temperature;humidity
9450;DHT22;4763;48.370;10.874;2022-11-15T00:01:33;5.40;99.90
9450;DHT22;4763;48.370;10.874;2022-11-15T00:04:20;5.30;99.90
9450;DHT22;4763;48.370;10.874;2022-11-15T00:07:07;5.30;99.90
9450;DHT22;4763;48.370;10.874;2022-11-15T00:09:56;5.40;99.90
9450;DHT22;4763;48.370;10.874;2022-11-15T00:12:43;5.40;99.90
9450;DHT22;4763;48.370;10.874;2022-11-15T00:15:30;5.30;99.90
9450;DHT22;4763;48.370;10.874;2022-11-15T00:18:17;5.30;99.90
9450;DHT22;4763;48.370;10.874;2022-11-15T00:21:06;5.20;99.90
9450;DHT22;4763;48.370;10.874;2022-11-15T00:23:54;5.30;99.90
9450;DHT22;4763;48.370;10.874;2022-11-15T00:26:42;5.30;99.90
9450;DHT22;4763;48.370;10.874;2022-11-15T00:29:29;5.30;99.90
9450;DHT22;4763;48.370;10.874;2022-11-15T00:32:16;5.20;99.90
9450;DHT22;4763;48.370;10.874;2022-11-15T00:35:04;5.20;99.90
9450;DHT22;4763;48.370;10.874;2022-11-15T00:37:52;5.30;99.90
9450;DHT22;4763;48.370;10.874;2022-11-15T00:40:39;5.30;99.90
9450;DHT22;4763;48.370;10.874;2022-11-15T00:43:28;5.20;99.90
9450;DHT22;4763;48.370;10.874;2022-11-15T00:46:15;5.20;99.90
9450;DHT22;4763;48.370;10.874;2022-11-15T00:49:02;5.20;99.90
9450;DHT22;4763;48.370;10.874;2022-11-15T00:51:49;5.20;99.90
9450;DHT22;4763;48.370;10.874;2022-11-15T00:54:36;5.20;99.90
9450;DHT22;4763;48.370;10.874;2022-11-15T00:57:23;5.20;99.90
9450;DHT22;4763;48.370;10.874;2022-11-15T01:00:13;5.20;99.90
9450;DHT22;4763;48.370;10.874;2022-11-15T01:03:00;5.20;99.90
9450;DHT22;4763;48.370;10.874;2022-11-15T01:05:47;5.20;99.90
9450;DHT22;4763;48.370;10.874;2022-11-15T01:08:35;5.10;99.90
9450;DHT22;4763;48.370;10.874;2022-11-15T01:11:22;5.10;99.90
9450;DHT22;4763;48.370;10.874;2022-11-15T01:14:09;5.10;99.90
9450;DHT22;4763;48.370;10.874;2022-11-15T01:16:58;5.00;99.90
9450;DHT22;4763;48.370;10.874;2022-11-15T01:19:45;5.00;99.90
9450;DHT22;4763;48.370;10.874;2022-11-15T01:22:32;5.00;99.90
9450;DHT22;4763;48.370;10.874;2022-11-15T01:25:19;5.00;99.90
9450;DHT22;4763;48.370;10.874;2022-11-15T01:28:06;5.00;99.90
9450;DHT22;4763;48.370;10.874;2022-11-15T01:30:53;4.90;99.90
9450;DHT22;4763;48.370;10.874;2022-11-15T01:33:42;4.80;99.90
9450;DHT22;4763;48.370;10.874;2022-11-15T01:36:29;4.70;99.90
9450;DHT22;4763;48.370;10.874;2022-11-15T01:39:16;4.70;99.90
9450;DHT22;4763;48.370;10.874;2022-11-15T01:42:03;4.70;99.90
9450;DHT22;4763;48.370;10.874;2022-11-15T01:44:51;4.60;99.90
9450;DHT22;4763;48.370;10.874;2022-11-15T01:47:42;4.60;99.90
9450;DHT22;4763;48.370;10.874;2022-11-15T01:50:33;4.50;99.90
9450;DHT22;4763;48.370;10.874;2022-11-15T01:53:21;4.50;99.90
9450;DHT22;4763;48.370;10.874;2022-11-15T01:56:15;4.50;99.90
9450;DHT22;4763;48.370;10.874;2022-11-15T01:59:06;4.50;99.90
9450;DHT22;4763;48.370;10.874;2022-11-15T02:01:54;4.50;99.90
9450;DHT22;4763;48.370;10.874;2022-11-15T02:04:43;4.40;99.90
9450;DHT22;4763;48.370;10.874;2022-11-15T02:07:33;4.40;99.90
9450;DHT22;4763;48.370;10.874;2022-11-15T02:10:23;4.30;99.90
9450;DHT22;4763;48.370;10.874;2022-11-15T02:13:10;4.30;99.90
9450;DHT22;4763;48.370;10.874;2022-11-15T02:16:02;4.30;99.90
9450;DHT22;4763;48.370;10.874;2022-11-15T02:18:57;4.20;99.90
9450;DHT22;4763;48.370;10.874;2022-11-15T02:21:50;4.10;99.90
9450;DHT22;4763;48.370;10.874;2022-11-15T02:25:01;4.20;99.90
9450;DHT22;4763;48.370;10.874;2022-11-15T02:31:11;4.10;99.90
9450;DHT22;4763;48.370;10.874;2022-11-15T02:34:05;4.00;99.90
9450;DHT22;4763;48.370;10.874;2022-11-15T02:37:03;4.00;99.90
9450;DHT22;4763;48.370;10.874;2022-11-15T02:39:59;4.00;99.90
9450;DHT22;4763;48.370;10.874;2022-11-15T02:42:53;3.90;99.90
9450;DHT22;4763;48.370;10.874;2022-11-15T02:46:03;3.90;99.90
9450;DHT22;4763;48.370;10.874;2022-11-15T02:48:55;3.90;99.90
9450;DHT22;4763;48.370;10.874;2022-11-15T02:51:44;3.80;99.90
9450;DHT22;4763;48.370;10.874;2022-11-15T02:54:33;3.90;99.90
9450;DHT22;4763;48.370;10.874;2022-11-15T02:57:29;3.80;99.90
9450;DHT22;4763;48.370;10.874;2022-11-15T03:00:20;3.80;99.90
9450;DHT22;4763;48.370;10.874;2022-11-15T03:03:24;3.80;99.90
9450;DHT22;4763;48.370;10.874;2022-11-15T03:06:25;3.70;99.90
9450;DHT22;4763;48.370;10.874;2022-11-15T03:09:24;3.70;99.90
9450;DHT22;4763;48.370;10.874;2022-11-15T03:12:22;3.70;99.90
9450;DHT22;4763;48.370;10.874;2022-11-15T03:15:17;3.70;99.90
9450;DHT22;4763;48.370;10.874;2022-11-15T03:18:12;3.70;99.90
9450;DHT22;4763;48.370;10.874;2022-11-15T03:21:04;3.70;99.90
9450;DHT22;4763;48.370;10.874;2022-11-15T03:23:54;3.60;99.90
9450;DHT22;4763;48.370;10.874;2022-11-15T03:26:44;3.60;99.90
9450;DHT22;4763;48.370;10.874;2022-11-15T03:29:33;3.60;99.90
9450;DHT22;4763;48.370;10.874;2022-11-15T03:32:24;3.60;99.90
9450;DHT22;4763;48.370;10.874;2022-11-15T03:35:14;3.60;99.90
9450;DHT22;4763;48.370;10.874;2022-11-15T03:38:06;3.50;99.90
9450;DHT22;4763;48.370;10.874;2022-11-15T03:40:59;3.50;99.90
9450;DHT22;4763;48.370;10.874;2022-11-15T03:43:50;3.50;99.90
9450;DHT22;4763;48.370;10.874;2022-11-15T03:46:43;3.40;99.90
9450;DHT22;4763;48.370;10.874;2022-11-15T03:49:34;3.40;99.90
9450;DHT22;4763;48.370;10.874;2022-11-15T03:52:22;3.30;99.90
9450;DHT22;4763;48.370;10.874;2022-11-15T03:55:11;3.30;99.90
9450;DHT22;4763;48.370;10.874;2022-11-15T03:58:01;3.20;99.90
9450;DHT22;4763;48.370;10.874;2022-11-15T04:00:48;3.20;99.90
9450;DHT22;4763;48.370;10.874;2022-11-15T04:03:35;3.20;99.90
9450;DHT22;4763;48.370;10.874;2022-11-15T04:06:22;3.20;99.90
9450;DHT22;4763;48.370;10.874;2022-11-15T04:09:09;3.10;99.90
9450;DHT22;4763;48.370;10.874;2022-11-15T04:11:56;3.10;99.90
9450;DHT22;4763;48.370;10.874;2022-11-15T04:14:45;3.10;99.90
9450;DHT22;4763;48.370;10.874;2022-11-15T04:17:53;3.10;99.90
9450;DHT22;4763;48.370;10.874;2022-11-15T04:20:41;3.10;99.90
9450;DHT22;4763;48.370;10.874;2022-11-15T04:23:45;3.10;99.90
9450;DHT22;4763;48.370;10.874;2022-11-15T04:26:50;3.10;99.90
9450;DHT22;4763;48.370;10.874;2022-11-15T04:29:37;3.10;99.90
9450;DHT22;4763;48.370;10.874;2022-11-15T04:32:25;3.10;99.90
9450;DHT22;4763;48.370;10.874;2022-11-15T04:35:13;3.00;99.90
9450;DHT22;4763;48.370;10.874;2022-11-15T04:38:01;3.00;99.90
9450;DHT22;4763;48.370;10.874;2022-11-15T04:40:48;2.90;99.90
9450;DHT22;4763;48.370;10.874;2022-11-15T04:43:35;2.90;99.90
9450;DHT22;4763;48.370;10.874;2022-11-15T04:46:22;2.90;99.90
9450;DHT22;4763;48.370;10.874;2022-11-15T04:49:11;2.90;99.90
9450;DHT22;4763;48.370;10.874;2022-11-15T04:51:58;2.90;99.90
9450;DHT22;4763;48.370;10.874;2022-11-15T04:54:45;2.90;99.90
9450;DHT22;4763;48.370;10.874;2022-11-15T04:57:33;2.80;99.90
9450;DHT22;4763;48.370;10.874;2022-11-15T05:00:20;2.80;99.90
9450;DHT22;4763;48.370;10.874;2022-11-15T05:03:08;2.80;99.90
9450;DHT22;4763;48.370;10.874;2022-11-15T05:06:15;2.80;99.90
9450;DHT22;4763;48.370;10.874;2022-11-15T05:09:02;2.70;99.90
9450;DHT22;4763;48.370;10.874;2022-11-15T05:11:49;2.70;99.90
9450;DHT22;4763;48.370;10.874;2022-11-15T05:14:36;2.70;99.90
9450;DHT22;4763;48.370;10.874;2022-11-15T05:17:23;2.70;99.90
9450;DHT22;4763;48.370;10.874;2022-11-15T05:20:11;2.70;99.90
9450;DHT22;4763;48.370;10.874;2022-11-15T05:22:59;2.60;99.90
9450;DHT22;4763;48.370;10.874;2022-11-15T05:25:46;2.60;99.90
9450;DHT22;4763;48.370;10.874;2022-11-15T05:28:34;2.70;99.90
9450;DHT22;4763;48.370;10.874;2022-11-15T05:31:22;2.60;99.90
9450;DHT22;4763;48.370;10.874;2022-11-15T05:34:10;2.60;99.90
9450;DHT22;4763;48.370;10.874;2022-11-15T05:36:57;2.60;99.90
9450;DHT22;4763;48.370;10.874;2022-11-15T05:39:45;2.60;99.90
9450;DHT22;4763;48.370;10.874;2022-11-15T05:42:32;2.50;99.90
9450;DHT22;4763;48.370;10.874;2022-11-15T05:45:20;2.50;99.90
9450;DHT22;4763;48.370;10.874;2022-11-15T05:48:08;2.50;99.90
9450;DHT22;4763;48.370;10.874;2022-11-15T05:50:56;2.50;99.90
9450;DHT22;4763;48.370;10.874;2022-11-15T05:53:44;2.50;99.90
9450;DHT22;4763;48.370;10.874;2022-11-15T05:56:33;2.50;99.90
9450;DHT22;4763;48.370;10.874;2022-11-15T05:59:20;2.40;99.90
9450;DHT22;4763;48.370;10.874;2022-11-15T06:02:07;2.50;99.90
9450;DHT22;4763;48.370;10.874;2022-11-15T06:04:54;2.40;99.90
9450;DHT22;4763;48.370;10.874;2022-11-15T06:07:42;2.40;99.90
9450;DHT22;4763;48.370;10.874;2022-11-15T06:10:29;2.40;99.90
9450;DHT22;4763;48.370;10.874;2022-11-15T06:13:18;2.40;99.90
9450;DHT22;4763;48.370;10.874;2022-11-15T06:16:05;2.40;99.90
9450;DHT22;4763;48.370;10.874;2022-11-15T06:18:53;2.30;99.90
9450;DHT22;4763;48.370;10.874;2022-11-15T06:21:40;2.40;99.90
9450;DHT22;4763;48.370;10.874;2022-11-15T06:24:27;2.30;99.90
9450;DHT22;4763;48.370;10.874;2022-11-15T06:27:14;2.30;99.90
9450;DHT22;4763;48.370;10.874;2022-11-15T06:30:03;2.30;99.90
9450;DHT22;4763;48.370;10.874;2022-11-15T06:32:51;2.30;99.90
9450;DHT22;4763;48.370;10.874;2022-11-15T06:35:38;2.30;99.90
9450;DHT22;4763;48.370;10.874;2022-11-15T06:38:26;2.30;99.90
9450;DHT22;4763;48.370;10.874;2022-11-15T06:41:14;2.40;99.90
9450;DHT22;4763;48.370;10.874;2022-11-15T06:44:03;2.40;99.90
9450;DHT22;4763;48.370;10.874;2022-11-15T06:46:51;2.50;99.90
9450;DHT22;4763;48.370;10.874;2022-11-15T06:49:38;2.50;99.90
9450;DHT22;4763;48.370;10.874;2022-11-15T06:52:25;2.40;99.90
9450;DHT22;4763;48.370;10.874;2022-11-15T06:55:12;2.40;99.90
9450;DHT22;4763;48.370;10.874;2022-11-15T06:57:59;2.40;99.90
9450;DHT22;4763;48.370;10.874;2022-11-15T07:00:46;2.40;99.90
9450;DHT22;4763;48.370;10.874;2022-11-15T07:03:35;2.50;99.90
9450;DHT22;4763;48.370;10.874;2022-11-15T07:06:23;2.50;99.90
9450;DHT22;4763;48.370;10.874;2022-11-15T07:09:10;2.50;99.90
9450;DHT22;4763;48.370;10.874;2022-11-15T07:11:57;2.50;99.90
9450;DHT22;4763;48.370;10.874;2022-11-15T07:14:44;2.60;99.90
9450;DHT22;4763;48.370;10.874;2022-11-15T07:17:32;2.60;99.90
9450;DHT22;4763;48.370;10.874;2022-11-15T07:20:20;2.70;99.90
9450;DHT22;4763;48.370;10.874;2022-11-15T07:23:07;2.70;99.90
9450;DHT22;4763;48.370;10.874;2022-11-15T07:25:56;2.80;99.90
9450;DHT22;4763;48.370;10.874;2022-11-15T07:28:44;2.90;99.90
9450;DHT22;4763;48.370;10.874;2022-11-15T07:31:31;2.90;99.90
9450;DHT22;4763;48.370;10.874;2022-11-15T07:34:18;3.00;99.90
9450;DHT22;4763;48.370;10.874;2022-11-15T07:37:07;3.10;99.90
9450;DHT22;4763;48.370;10.874;2022-11-15T07:39:54;3.10;99.90
9450;DHT22;4763;48.370;10.874;2022-11-15T07:42:42;3.20;99.90
9450;DHT22;4763;48.370;10.874;2022-11-15T07:45:42;3.30;99.90
9450;DHT22;4763;48.370;10.874;2022-11-15T07:48:30;3.40;99.90
9450;DHT22;4763;48.370;10.874;2022-11-15T07:51:17;3.50;99.90
9450;DHT22;4763;48.370;10.874;2022-11-15T07:54:06;3.60;99.90
9450;DHT22;4763;48.370;10.874;2022-11-15T07:56:53;3.70;99.90
9450;DHT22;4763;48.370;10.874;2022-11-15T07:59:40;3.80;99.90
9450;DHT22;4763;48.370;10.874;2022-11-15T08:02:27;3.90;99.90
9450;DHT22;4763;48.370;10.874;2022-11-15T08:05:14;4.00;99.90
9450;DHT22;4763;48.370;10.874;2022-11-15T08:08:02;4.10;99.90
9450;DHT22;4763;48.370;10.874;2022-11-15T08:10:51;4.20;99.90
9450;DHT22;4763;48.370;10.874;2022-11-15T08:13:38;4.40;99.90
9450;DHT22;4763;48.370;10.874;2022-11-15T08:16:25;4.60;99.90
9450;DHT22;4763;48.370;10.874;2022-11-15T08:19:12;4.80;99.90
9450;DHT22;4763;48.370;10.874;2022-11-15T08:22:01;4.90;99.90
9450;DHT22;4763;48.370;10.874;2022-11-15T08:24:48;5.10;99.90
9450;DHT22;4763;48.370;10.874;2022-11-15T08:27:37;5.40;99.90
9450;DHT22;4763;48.370;10.874;2022-11-15T08:30:24;5.60;99.90
9450;DHT22;4763;48.370;10.874;2022-11-15T08:33:12;5.90;99.90
9450;DHT22;4763;48.370;10.874;2022-11-15T08:36:00;6.30;99.90
9450;DHT22;4763;48.370;10.874;2022-11-15T08:38:47;6.60;99.90
9450;DHT22;4763;48.370;10.874;2022-11-15T08:41:36;6.70;99.90
9450;DHT22;4763;48.370;10.874;2022-11-15T08:44:25;6.90;99.90
9450;DHT22;4763;48.370;10.874;2022-11-15T08:47:12;7.00;99.90
9450;DHT22;4763;48.370;10.874;2022-11-15T08:50:00;7.10;99.90
9450;DHT22;4763;48.370;10.874;2022-11-15T08:52:47;7.40;99.90
9450;DHT22;4763;48.370;10.874;2022-11-15T08:55:36;7.80;99.90
9450;DHT22;4763;48.370;10.874;2022-11-15T08:58:24;8.00;99.90
9450;DHT22;4763;48.370;10.874;2022-11-15T09:01:17;8.10;99.90
9450;DHT22;4763;48.370;10.874;2022-11-15T09:04:04;8.10;99.90
9450;DHT22;4763;48.370;10.874;2022-11-15T09:06:51;8.10;99.90
9450;DHT22;4763;48.370;10.874;2022-11-15T09:09:39;8.20;99.90
9450;DHT22;4763;48.370;10.874;2022-11-15T09:12:26;8.30;99.90
9450;DHT22;4763;48.370;10.874;2022-11-15T09:15:13;8.20;99.90
9450;DHT22;4763;48.370;10.874;2022-11-15T09:18:02;8.50;99.90
9450;DHT22;4763;48.370;10.874;2022-11-15T09:20:49;8.80;99.90
9450;DHT22;4763;48.370;10.874;2022-11-15T09:23:36;8.80;99.90
9450;DHT22;4763;48.370;10.874;2022-11-15T09:26:24;8.70;99.90
9450;DHT22;4763;48.370;10.874;2022-11-15T09:29:11;8.80;99.90
9450;DHT22;4763;48.370;10.874;2022-11-15T09:31:58;9.20;99.90
9450;DHT22;4763;48.370;10.874;2022-11-15T09:34:46;9.10;99.90
9450;DHT22;4763;48.370;10.874;2022-11-15T09:37:33;9.20;99.90
9450;DHT22;4763;48.370;10.874;2022-11-15T09:40:21;9.30;99.90
9450;DHT22;4763;48.370;10.874;2022-11-15T09:43:25;9.20;99.90
9450;DHT22;4763;48.370;10.874;2022-11-15T09:46:19;9.10;99.90
9450;DHT22;4763;48.370;10.874;2022-11-15T09:49:09;9.10;99.90
9450;DHT22;4763;48.370;10.874;2022-11-15T09:51:58;9.20;99.90
9450;DHT22;4763;48.370;10.874;2022-11-15T09:54:48;9.40;99.90
9450;DHT22;4763;48.370;10.874;2022-11-15T09:57:39;9.50;99.90
9450;DHT22;4763;48.370;10.874;2022-11-15T10:00:33;9.50;99.90
9450;DHT22;4763;48.370;10.874;2022-11-15T10:03:26;9.60;99.90
9450;DHT22;4763;48.370;10.874;2022-11-15T10:06:21;9.50;99.90
9450;DHT22;4763;48.370;10.874;2022-11-15T10:09:15;9.80;99.90
9450;DHT22;4763;48.370;10.874;2022-11-15T10:12:03;9.90;99.90
9450;DHT22;4763;48.370;10.874;2022-11-15T10:14:55;9.90;99.90
9450;DHT22;4763;48.370;10.874;2022-11-15T10:18:12;10.10;99.90
9450;DHT22;4763;48.370;10.874;2022-11-15T10:21:12;10.30;99.90
9450;DHT22;4763;48.370;10.874;2022-11-15T10:24:01;10.20;99.90
9450;DHT22;4763;48.370;10.874;2022-11-15T10:26:50;10.20;99.90
9450;DHT22;4763;48.370;10.874;2022-11-15T10:29:43;10.20;99.90
9450;DHT22;4763;48.370;10.874;2022-11-15T10:32:33;10.10;99.90
9450;DHT22;4763;48.370;10.874;2022-11-15T10:35:26;10.20;99.90
9450;DHT22;4763;48.370;10.874;2022-11-15T10:38:13;10.30;99.90
9450;DHT22;4763;48.370;10.874;2022-11-15T10:41:07;10.30;99.90
9450;DHT22;4763;48.370;10.874;2022-11-15T10:47:27;10.30;99.90
9450;DHT22;4763;48.370;10.874;2022-11-15T10:50:28;10.30;99.90
9450;DHT22;4763;48.370;10.874;2022-11-15T10:53:20;10.30;99.90
9450;DHT22;4763;48.370;10.874;2022-11-15T10:56:12;10.40;99.90
9450;DHT22;4763;48.370;10.874;2022-11-15T10:59:02;10.40;99.90
9450;DHT22;4763;48.370;10.874;2022-11-15T11:01:49;10.40;99.90
9450;DHT22;4763;48.370;10.874;2022-11-15T11:04:49;10.40;99.90
9450;DHT22;4763;48.370;10.874;2022-11-15T11:07:36;10.70;99.90
9450;DHT22;4763;48.370;10.874;2022-11-15T11:10:23;10.60;99.90
9450;DHT22;4763;48.370;10.874;2022-11-15T11:13:14;10.60;99.90
9450;DHT22;4763;48.370;10.874;2022-11-15T11:16:30;10.70;99.90
9450;DHT22;4763;48.370;10.874;2022-11-15T11:19:44;10.80;99.90
9450;DHT22;4763;48.370;10.874;2022-11-15T11:22:39;10.80;99.90
9450;DHT22;4763;48.370;10.874;2022-11-15T11:25:34;10.90;99.90
9450;DHT22;4763;48.370;10.874;2022-11-15T11:28:33;11.00;99.90
9450;DHT22;4763;48.370;10.874;2022-11-15T11:31:32;11.10;99.90
9450;DHT22;4763;48.370;10.874;2022-11-15T11:34:34;11.10;99.90
9450;DHT22;4763;48.370;10.874;2022-11-15T11:37:29;11.30;99.90
9450;DHT22;4763;48.370;10.874;2022-11-15T11:40:27;11.40;99.90
9450;DHT22;4763;48.370;10.874;2022-11-15T11:43:23;11.50;99.90
9450;DHT22;4763;48.370;10.874;2022-11-15T11:46:32;11.70;99.90
9450;DHT22;4763;48.370;10.874;2022-11-15T11:49:25;11.90;99.90
9450;DHT22;4763;48.370;10.874;2022-11-15T11:52:18;12.10;99.90
9450;DHT22;4763;48.370;10.874;2022-11-15T11:55:14;12.30;99.90
9450;DHT22;4763;48.370;10.874;2022-11-15T11:58:06;12.50;99.90
9450;DHT22;4763;48.370;10.874;2022-11-15T12:01:11;12.80;99.90
9450;DHT22;4763;48.370;10.874;2022-11-15T12:04:05;12.90;99.90
9450;DHT22;4763;48.370;10.874;2022-11-15T12:06:59;12.90;99.90
9450;DHT22;4763;48.370;10.874;2022-11-15T12:09:52;13.20;99.90
9450;DHT22;4763;48.370;10.874;2022-11-15T12:12:45;13.30;99.90
9450;DHT22;4763;48.370;10.874;2022-11-15T12:15:39;13.40;99.90
9450;DHT22;4763;48.370;10.874;2022-11-15T12:18:28;13.40;99.90
9450;DHT22;4763;48.370;10.874;2022-11-15T12:21:21;13.40;99.90
9450;DHT22;4763;48.370;10.874;2022-11-15T12:24:16;13.60;99.90
9450;DHT22;4763;48.370;10.874;2022-11-15T12:27:08;13.70;99.90
9450;DHT22;4763;48.370;10.874;2022-11-15T12:29:59;13.90;99.90
9450;DHT22;4763;48.370;10.874;2022-11-15T12:32:52;13.90;99.90
9450;DHT22;4763;48.370;10.874;2022-11-15T12:35:42;14.20;99.90
9450;DHT22;4763;48.370;10.874;2022-11-15T12:38:53;14.40;99.90
9450;DHT22;4763;48.370;10.874;2022-11-15T12:41:42;14.60;99.90
9450;DHT22;4763;48.370;10.874;2022-11-15T12:44:56;14.70;99.90
9450;DHT22;4763;48.370;10.874;2022-11-15T12:47:44;14.90;99.90
9450;DHT22;4763;48.370;10.874;2022-11-15T12:50:53;15.00;99.90
9450;DHT22;4763;48.370;10.874;2022-11-15T12:53:40;15.00;99.90
9450;DHT22;4763;48.370;10.874;2022-11-15T12:56:29;14.90;99.90
9450;DHT22;4763;48.370;10.874;2022-11-15T12:59:49;15.00;99.90
9450;DHT22;4763;48.370;10.874;2022-11-15T13:02:39;15.10;99.90
9450;DHT22;4763;48.370;10.874;2022-11-15T13:08:49;15.10;99.90
9450;DHT22;4763;48.370;10.874;2022-11-15T13:14:51;14.80;99.90
9450;DHT22;4763;48.370;10.874;2022-11-15T13:17:39;14.50;99.90
9450;DHT22;4763;48.370;10.874;2022-11-15T13:20:28;14.30;99.90
9450;DHT22;4763;48.370;10.874;2022-11-15T13:23:15;14.20;99.90
9450;DHT22;4763;48.370;10.874;2022-11-15T13:26:11;14.10;99.90
9450;DHT22;4763;48.370;10.874;2022-11-15T13:28:59;14.10;99.90
9450;DHT22;4763;48.370;10.874;2022-11-15T13:31:48;14.10;99.90
9450;DHT22;4763;48.370;10.874;2022-11-15T13:34:37;14.00;99.90
9450;DHT22;4763;48.370;10.874;2022-11-15T13:37:29;14.00;99.90
9450;DHT22;4763;48.370;10.874;2022-11-15T13:40:25;13.90;99.90
9450;DHT22;4763;48.370;10.874;2022-11-15T13:43:23;13.80;99.90
9450;DHT22;4763;48.370;10.874;2022-11-15T13:46:17;13.70;99.90
9450;DHT22;4763;48.370;10.874;2022-11-15T13:49:09;13.60;99.90
9450;DHT22;4763;48.370;10.874;2022-11-15T13:51:58;13.50;99.90
9450;DHT22;4763;48.370;10.874;2022-11-15T13:54:50;13.40;99.90
9450;DHT22;4763;48.370;10.874;2022-11-15T13:57:40;13.40;99.90
9450;DHT22;4763;48.370;10.874;2022-11-15T14:00:33;13.20;99.90
9450;DHT22;4763;48.370;10.874;2022-11-15T14:03:23;13.10;99.90
9450;DHT22;4763;48.370;10.874;2022-11-15T14:06:14;13.00;99.90
9450;DHT22;4763;48.370;10.874;2022-11-15T14:09:34;12.90;99.90
9450;DHT22;4763;48.370;10.874;2022-11-15T14:12:27;12.80;99.90
9450;DHT22;4763;48.370;10.874;2022-11-15T14:15:26;12.70;99.90
9450;DHT22;4763;48.370;10.874;2022-11-15T14:18:40;12.60;99.90
9450;DHT22;4763;48.370;10.874;2022-11-15T14:21:28;12.40;99.90
9450;DHT22;4763;48.370;10.874;2022-11-15T14:24:16;12.40;99.90
9450;DHT22;4763;48.370;10.874;2022-11-15T14:27:23;12.30;99.90
9450;DHT22;4763;48.370;10.874;2022-11-15T14:30:14;12.30;99.90
9450;DHT22;4763;48.370;10.874;2022-11-15T14:33:18;12.20;99.90
9450;DHT22;4763;48.370;10.874;2022-11-15T14:36:10;12.10;99.90
9450;DHT22;4763;48.370;10.874;2022-11-15T14:38:59;12.00;99.90
9450;DHT22;4763;48.370;10.874;2022-11-15T14:41:47;12.00;99.90
9450;DHT22;4763;48.370;10.874;2022-11-15T14:44:34;11.90;99.90
9450;DHT22;4763;48.370;10.874;2022-11-15T14:47:21;11.80;99.90
9450;DHT22;4763;48.370;10.874;2022-11-15T14:50:12;11.80;99.90
9450;DHT22;4763;48.370;10.874;2022-11-15T14:53:00;11.70;99.90
9450;DHT22;4763;48.370;10.874;2022-11-15T14:55:49;11.60;99.90
9450;DHT22;4763;48.370;10.874;2022-11-15T14:58:36;11.50;99.90
9450;DHT22;4763;48.370;10.874;2022-11-15T15:01:25;11.30;99.90
9450;DHT22;4763;48.370;10.874;2022-11-15T15:04:12;11.30;99.90
9450;DHT22;4763;48.370;10.874;2022-11-15T15:06:59;11.20;99.90
9450;DHT22;4763;48.370;10.874;2022-11-15T15:09:46;11.20;99.90
9450;DHT22;4763;48.370;10.874;2022-11-15T15:12:34;11.20;99.90
9450;DHT22;4763;48.370;10.874;2022-11-15T15:15:24;11.20;99.90
9450;DHT22;4763;48.370;10.874;2022-11-15T15:18:12;11.10;99.90
9450;DHT22;4763;48.370;10.874;2022-11-15T15:20:59;10.90;99.90
9450;DHT22;4763;48.370;10.874;2022-11-15T15:23:49;10.80;99.90
9450;DHT22;4763;48.370;10.874;2022-11-15T15:26:36;10.70;99.90
9450;DHT22;4763;48.370;10.874;2022-11-15T15:29:26;10.60;99.90
9450;DHT22;4763;48.370;10.874;2022-11-15T15:32:13;10.50;99.90
9450;DHT22;4763;48.370;10.874;2022-11-15T15:35:00;10.40;99.90
9450;DHT22;4763;48.370;10.874;2022-11-15T15:37:48;10.30;99.90
9450;DHT22;4763;48.370;10.874;2022-11-15T15:40:36;10.20;99.90
9450;DHT22;4763;48.370;10.874;2022-11-15T15:43:23;10.10;99.90
9450;DHT22;4763;48.370;10.874;2022-11-15T15:46:14;10.00;99.90
9450;DHT22;4763;48.370;10.874;2022-11-15T15:49:01;9.90;99.90
9450;DHT22;4763;48.370;10.874;2022-11-15T15:51:49;9.90;99.90
9450;DHT22;4763;48.370;10.874;2022-11-15T15:54:36;9.90;99.90
9450;DHT22;4763;48.370;10.874;2022-11-15T15:57:23;9.80;99.90
9450;DHT22;4763;48.370;10.874;2022-11-15T16:00:11;9.70;99.90
9450;DHT22;4763;48.370;10.874;2022-11-15T16:02:59;9.70;99.90
9450;DHT22;4763;48.370;10.874;2022-11-15T16:05:46;9.60;99.90
9450;DHT22;4763;48.370;10.874;2022-11-15T16:08:33;9.60;99.90
9450;DHT22;4763;48.370;10.874;2022-11-15T16:11:20;9.50;99.90
9450;DHT22;4763;48.370;10.874;2022-11-15T16:14:08;9.50;99.90
9450;DHT22;4763;48.370;10.874;2022-11-15T16:16:55;9.50;99.90
9450;DHT22;4763;48.370;10.874;2022-11-15T16:19:43;9.50;99.90
9450;DHT22;4763;48.370;10.874;2022-11-15T16:22:30;9.40;99.90
9450;DHT22;4763;48.370;10.874;2022-11-15T16:25:17;9.40;99.90
9450;DHT22;4763;48.370;10.874;2022-11-15T16:28:04;9.40;99.90
9450;DHT22;4763;48.370;10.874;2022-11-15T16:31:00;9.30;99.90
9450;DHT22;4763;48.370;10.874;2022-11-15T16:33:47;9.30;99.90
9450;DHT22;4763;48.370;10.874;2022-11-15T16:36:36;9.30;99.90
9450;DHT22;4763;48.370;10.874;2022-11-15T16:39:23;9.30;99.90
9450;DHT22;4763;48.370;10.874;2022-11-15T16:42:10;9.20;99.90
9450;DHT22;4763;48.370;10.874;2022-11-15T16:44:57;9.20;99.90
9450;DHT22;4763;48.370;10.874;2022-11-15T16:47:44;9.20;99.90
9450;DHT22;4763;48.370;10.874;2022-11-15T16:50:33;9.10;99.90
9450;DHT22;4763;48.370;10.874;2022-11-15T16:53:27;9.10;99.90
9450;DHT22;4763;48.370;10.874;2022-11-15T16:56:19;9.00;99.90
9450;DHT22;4763;48.370;10.874;2022-11-15T16:59:10;9.00;99.90
9450;DHT22;4763;48.370;10.874;2022-11-15T17:02:00;8.90;99.90
9450;DHT22;4763;48.370;10.874;2022-11-15T17:04:47;8.90;99.90
9450;DHT22;4763;48.370;10.874;2022-11-15T17:07:34;8.90;99.90
9450;DHT22;4763;48.370;10.874;2022-11-15T17:10:24;8.90;99.90
9450;DHT22;4763;48.370;10.874;2022-11-15T17:13:12;8.80;99.90
9450;DHT22;4763;48.370;10.874;2022-11-15T17:16:04;8.80;99.90
9450;DHT22;4763;48.370;10.874;2022-11-15T17:18:51;8.80;99.90
9450;DHT22;4763;48.370;10.874;2022-11-15T17:21:38;8.70;99.90
9450;DHT22;4763;48.370;10.874;2022-11-15T17:24:25;8.70;99.90
9450;DHT22;4763;48.370;10.874;2022-11-15T17:27:14;8.70;99.90
9450;DHT22;4763;48.370;10.874;2022-11-15T17:30:01;8.70;99.90
9450;DHT22;4763;48.370;10.874;2022-11-15T17:32:48;8.70;99.90
9450;DHT22;4763;48.370;10.874;2022-11-15T17:35:35;8.60;99.90
9450;DHT22;4763;48.370;10.874;2022-11-15T17:38:22;8.60;99.90
9450;DHT22;4763;48.370;10.874;2022-11-15T17:41:12;8.60;99.90
9450;DHT22;4763;48.370;10.874;2022-11-15T17:44:01;8.50;99.90
9450;DHT22;4763;48.370;10.874;2022-11-15T17:46:48;8.60;99.90
9450;DHT22;4763;48.370;10.874;2022-11-15T17:49:35;8.50;99.90
9450;DHT22;4763;48.370;10.874;2022-11-15T17:52:25;8.50;99.90
9450;DHT22;4763;48.370;10.874;2022-11-15T17:55:12;8.50;99.90
9450;DHT22;4763;48.370;10.874;2022-11-15T17:57:59;8.40;99.90
9450;DHT22;4763;48.370;10.874;2022-11-15T18:00:48;8.50;99.90
9450;DHT22;4763;48.370;10.874;2022-11-15T18:03:35;8.40;99.90
9450;DHT22;4763;48.370;10.874;2022-11-15T18:06:23;8.40;99.90
9450;DHT22;4763;48.370;10.874;2022-11-15T18:09:10;8.40;99.90
9450;DHT22;4763;48.370;10.874;2022-11-15T18:11:57;8.40;99.90
9450;DHT22;4763;48.370;10.874;2022-11-15T18:14:44;8.40;99.90
9450;DHT22;4763;48.370;10.874;2022-11-15T18:17:33;8.40;99.90
9450;DHT22;4763;48.370;10.874;2022-11-15T18:20:21;8.40;99.90
9450;DHT22;4763;48.370;10.874;2022-11-15T18:23:08;8.30;99.90
9450;DHT22;4763;48.370;10.874;2022-11-15T18:25:55;8.40;99.90
9450;DHT22;4763;48.370;10.874;2022-11-15T18:28:44;8.40;99.90
9450;DHT22;4763;48.370;10.874;2022-11-15T18:31:31;8.40;99.90
9450;DHT22;4763;48.370;10.874;2022-11-15T18:34:20;8.40;99.90
9450;DHT22;4763;48.370;10.874;2022-11-15T18:37:08;8.40;99.90
9450;DHT22;4763;48.370;10.874;2022-11-15T18:39:55;8.40;99.90